sensor_id;sensor_type;location;lat;lon;timestamp;P1;durP1;ratioP1;P2;durP2;ratioP2
54145;SDS011;65909;49.422;7.738;2023-02-28T00:00:14;5.20;;;4.00;;
54145;SDS011;65909;49.422;7.738;2023-02-28T00:02:41;4.55;;;3.63;;
54145;SDS011;65909;49.422;7.738;2023-02-28T00:05:07;6.40;;;3.30;;
54145;SDS011;65909;49.422;7.738;2023-02-28T00:07:34;3.55;;;3.00;;
54145;SDS011;65909;49.422;7.738;2023-02-28T00:10:00;4.22;;;3.05;;
54145;SDS011;65909;49.422;7.738;2023-02-28T00:12:25;5.45;;;3.67;;
54145;SDS011;65909;49.422;7.738;2023-02-28T00:14:51;4.20;;;3.03;;
54145;SDS011;65909;49.422;7.738;2023-02-28T00:17:16;5.85;;;3.78;;
54145;SDS011;65909;49.422;7.738;2023-02-28T00:19:49;4.30;;;3.53;;
54145;SDS011;65909;49.422;7.738;2023-02-28T00:22:16;6.97;;;4.03;;
54145;SDS011;65909;49.422;7.738;2023-02-28T00:24:45;5.32;;;3.80;;
54145;SDS011;65909;49.422;7.738;2023-02-28T00:27:12;5.18;;;3.72;;
54145;SDS011;65909;49.422;7.738;2023-02-28T00:29:37;4.50;;;3.72;;
54145;SDS011;65909;49.422;7.738;2023-02-28T00:32:03;4.18;;;3.72;;
54145;SDS011;65909;49.422;7.738;2023-02-28T00:34:29;5.88;;;3.60;;
54145;SDS011;65909;49.422;7.738;2023-02-28T00:36:55;6.20;;;4.25;;
54145;SDS011;65909;49.422;7.738;2023-02-28T00:39:20;4.85;;;3.70;;
54145;SDS011;65909;49.422;7.738;2023-02-28T00:41:45;5.18;;;4.40;;
54145;SDS011;65909;49.422;7.738;2023-02-28T00:44:11;7.47;;;4.32;;
54145;SDS011;65909;49.422;7.738;2023-02-28T00:46:36;6.03;;;4.43;;
54145;SDS011;65909;49.422;7.738;2023-02-28T00:49:02;6.10;;;4.25;;
54145;SDS011;65909;49.422;7.738;2023-02-28T00:51:27;5.20;;;4.28;;
54145;SDS011;65909;49.422;7.738;2023-02-28T00:53:52;7.28;;;4.32;;
54145;SDS011;65909;49.422;7.738;2023-02-28T00:56:19;5.68;;;4.07;;
54145;SDS011;65909;49.422;7.738;2023-02-28T00:58:45;6.00;;;4.85;;
54145;SDS011;65909;49.422;7.738;2023-02-28T01:01:10;5.90;;;4.05;;
54145;SDS011;65909;49.422;7.738;2023-02-28T01:03:36;5.18;;;4.25;;
54145;SDS011;65909;49.422;7.738;2023-02-28T01:06:01;7.30;;;4.68;;
54145;SDS011;65909;49.422;7.738;2023-02-28T01:08:27;5.28;;;3.60;;
54145;SDS011;65909;49.422;7.738;2023-02-28T01:10:53;5.30;;;4.30;;
54145;SDS011;65909;49.422;7.738;2023-02-28T01:13:18;7.40;;;3.95;;
54145;SDS011;65909;49.422;7.738;2023-02-28T01:15:49;7.38;;;4.10;;
54145;SDS011;65909;49.422;7.738;2023-02-28T01:18:16;6.13;;;4.55;;
54145;SDS011;65909;49.422;7.738;2023-02-28T01:20:42;9.07;;;4.43;;
54145;SDS011;65909;49.422;7.738;2023-02-28T01:23:08;6.47;;;4.40;;
54145;SDS011;65909;49.422;7.738;2023-02-28T01:25:36;7.35;;;4.47;;
54145;SDS011;65909;49.422;7.738;2023-02-28T01:28:02;6.18;;;4.53;;
54145;SDS011;65909;49.422;7.738;2023-02-28T01:30:30;8.07;;;5.13;;
54145;SDS011;65909;49.422;7.738;2023-02-28T01:32:55;8.45;;;5.97;;
54145;SDS011;65909;49.422;7.738;2023-02-28T01:35:21;6.50;;;5.45;;
54145;SDS011;65909;49.422;7.738;2023-02-28T01:37:46;10.35;;;5.20;;
54145;SDS011;65909;49.422;7.738;2023-02-28T01:40:12;8.40;;;5.10;;
54145;SDS011;65909;49.422;7.738;2023-02-28T01:42:38;8.80;;;5.05;;
54145;SDS011;65909;49.422;7.738;2023-02-28T01:47:41;9.10;;;5.18;;
54145;SDS011;65909;49.422;7.738;2023-02-28T01:50:09;7.40;;;4.72;;
54145;SDS011;65909;49.422;7.738;2023-02-28T01:52:39;7.55;;;4.82;;
54145;SDS011;65909;49.422;7.738;2023-02-28T01:55:06;8.57;;;5.30;;
54145;SDS011;65909;49.422;7.738;2023-02-28T01:57:34;6.80;;;5.13;;
54145;SDS011;65909;49.422;7.738;2023-02-28T02:00:22;10.18;;;5.38;;
54145;SDS011;65909;49.422;7.738;2023-02-28T02:02:50;7.05;;;4.95;;
54145;SDS011;65909;49.422;7.738;2023-02-28T02:05:20;6.50;;;4.78;;
54145;SDS011;65909;49.422;7.738;2023-02-28T02:07:54;6.38;;;5.07;;
54145;SDS011;65909;49.422;7.738;2023-02-28T02:10:42;10.70;;;5.18;;
54145;SDS011;65909;49.422;7.738;2023-02-28T02:19:39;8.15;;;4.97;;
54145;SDS011;65909;49.422;7.738;2023-02-28T02:25:40;8.40;;;4.50;;
54145;SDS011;65909;49.422;7.738;2023-02-28T02:28:15;9.02;;;5.70;;
54145;SDS011;65909;49.422;7.738;2023-02-28T02:30:58;7.07;;;4.88;;
54145;SDS011;65909;49.422;7.738;2023-02-28T02:37:14;6.70;;;4.53;;
54145;SDS011;65909;49.422;7.738;2023-02-28T02:40:08;7.80;;;4.93;;
54145;SDS011;65909;49.422;7.738;2023-02-28T02:42:51;7.82;;;5.47;;
54145;SDS011;65909;49.422;7.738;2023-02-28T02:45:31;9.27;;;4.80;;
54145;SDS011;65909;49.422;7.738;2023-02-28T02:48:01;9.45;;;6.00;;
54145;SDS011;65909;49.422;7.738;2023-02-28T02:50:32;10.10;;;6.18;;
54145;SDS011;65909;49.422;7.738;2023-02-28T02:53:01;11.85;;;6.07;;
54145;SDS011;65909;49.422;7.738;2023-02-28T02:55:31;8.10;;;5.28;;
54145;SDS011;65909;49.422;7.738;2023-02-28T02:58:01;8.00;;;5.38;;
54145;SDS011;65909;49.422;7.738;2023-02-28T03:00:31;8.20;;;6.18;;
54145;SDS011;65909;49.422;7.738;2023-02-28T03:03:01;10.27;;;6.00;;
54145;SDS011;65909;49.422;7.738;2023-02-28T03:05:35;9.23;;;4.93;;
54145;SDS011;65909;49.422;7.738;2023-02-28T03:08:09;9.88;;;5.55;;
54145;SDS011;65909;49.422;7.738;2023-02-28T03:10:38;8.98;;;6.03;;
54145;SDS011;65909;49.422;7.738;2023-02-28T03:13:14;8.18;;;5.28;;
54145;SDS011;65909;49.422;7.738;2023-02-28T03:15:57;9.67;;;5.33;;
54145;SDS011;65909;49.422;7.738;2023-02-28T03:18:43;9.88;;;5.55;;
54145;SDS011;65909;49.422;7.738;2023-02-28T03:24:07;7.15;;;5.30;;
54145;SDS011;65909;49.422;7.738;2023-02-28T03:26:36;9.00;;;5.53;;
54145;SDS011;65909;49.422;7.738;2023-02-28T03:29:08;8.38;;;4.95;;
54145;SDS011;65909;49.422;7.738;2023-02-28T03:31:41;11.80;;;5.78;;
54145;SDS011;65909;49.422;7.738;2023-02-28T03:34:22;8.73;;;5.40;;
54145;SDS011;65909;49.422;7.738;2023-02-28T03:36:50;8.98;;;5.90;;
54145;SDS011;65909;49.422;7.738;2023-02-28T03:39:33;10.27;;;5.88;;
54145;SDS011;65909;49.422;7.738;2023-02-28T03:42:07;10.68;;;5.43;;
54145;SDS011;65909;49.422;7.738;2023-02-28T03:44:38;7.90;;;5.30;;
54145;SDS011;65909;49.422;7.738;2023-02-28T03:47:17;8.57;;;5.10;;
54145;SDS011;65909;49.422;7.738;2023-02-28T03:49:54;7.45;;;5.60;;
54145;SDS011;65909;49.422;7.738;2023-02-28T03:52:25;7.43;;;4.22;;
54145;SDS011;65909;49.422;7.738;2023-02-28T03:54:55;5.85;;;4.90;;
54145;SDS011;65909;49.422;7.738;2023-02-28T03:57:31;7.18;;;5.13;;
54145;SDS011;65909;49.422;7.738;2023-02-28T04:00:07;8.15;;;5.03;;
54145;SDS011;65909;49.422;7.738;2023-02-28T04:02:38;8.10;;;5.18;;
54145;SDS011;65909;49.422;7.738;2023-02-28T04:05:04;8.75;;;5.72;;
54145;SDS011;65909;49.422;7.738;2023-02-28T04:07:30;6.63;;;5.10;;
54145;SDS011;65909;49.422;7.738;2023-02-28T04:09:56;11.63;;;6.40;;
54145;SDS011;65909;49.422;7.738;2023-02-28T04:12:22;8.30;;;5.88;;
54145;SDS011;65909;49.422;7.738;2023-02-28T04:14:48;9.30;;;5.63;;
54145;SDS011;65909;49.422;7.738;2023-02-28T04:17:14;7.43;;;5.22;;
54145;SDS011;65909;49.422;7.738;2023-02-28T04:19:39;7.85;;;5.55;;
54145;SDS011;65909;49.422;7.738;2023-02-28T04:22:05;7.68;;;5.55;;
54145;SDS011;65909;49.422;7.738;2023-02-28T04:24:30;9.50;;;6.13;;
54145;SDS011;65909;49.422;7.738;2023-02-28T04:26:56;9.05;;;6.85;;
54145;SDS011;65909;49.422;7.738;2023-02-28T04:29:29;11.45;;;5.78;;
54145;SDS011;65909;49.422;7.738;2023-02-28T04:31:59;8.32;;;5.72;;
54145;SDS011;65909;49.422;7.738;2023-02-28T04:34:26;11.40;;;6.35;;
54145;SDS011;65909;49.422;7.738;2023-02-28T04:36:53;9.05;;;5.82;;
54145;SDS011;65909;49.422;7.738;2023-02-28T04:39:20;7.72;;;5.15;;
54145;SDS011;65909;49.422;7.738;2023-02-28T04:41:47;9.48;;;5.68;;
54145;SDS011;65909;49.422;7.738;2023-02-28T04:44:12;7.45;;;6.35;;
54145;SDS011;65909;49.422;7.738;2023-02-28T04:46:38;7.07;;;4.75;;
54145;SDS011;65909;49.422;7.738;2023-02-28T04:49:04;7.28;;;5.03;;
54145;SDS011;65909;49.422;7.738;2023-02-28T04:51:29;7.70;;;5.50;;
54145;SDS011;65909;49.422;7.738;2023-02-28T04:53:54;9.38;;;5.88;;
54145;SDS011;65909;49.422;7.738;2023-02-28T04:56:20;9.65;;;5.35;;
54145;SDS011;65909;49.422;7.738;2023-02-28T04:58:46;8.40;;;5.20;;
54145;SDS011;65909;49.422;7.738;2023-02-28T05:03:51;8.75;;;4.72;;
54145;SDS011;65909;49.422;7.738;2023-02-28T05:06:19;7.72;;;5.25;;
54145;SDS011;65909;49.422;7.738;2023-02-28T05:08:45;9.07;;;5.65;;
54145;SDS011;65909;49.422;7.738;2023-02-28T05:11:31;9.23;;;6.05;;
54145;SDS011;65909;49.422;7.738;2023-02-28T05:14:01;9.93;;;5.57;;
54145;SDS011;65909;49.422;7.738;2023-02-28T05:16:28;9.70;;;5.47;;
54145;SDS011;65909;49.422;7.738;2023-02-28T05:18:53;8.57;;;5.53;;
54145;SDS011;65909;49.422;7.738;2023-02-28T05:21:35;7.85;;;5.22;;
54145;SDS011;65909;49.422;7.738;2023-02-28T05:24:03;9.88;;;5.57;;
54145;SDS011;65909;49.422;7.738;2023-02-28T05:26:30;6.32;;;4.78;;
54145;SDS011;65909;49.422;7.738;2023-02-28T05:28:58;8.75;;;4.88;;
54145;SDS011;65909;49.422;7.738;2023-02-28T05:31:24;5.18;;;4.50;;
54145;SDS011;65909;49.422;7.738;2023-02-28T05:33:49;9.55;;;5.43;;
54145;SDS011;65909;49.422;7.738;2023-02-28T05:36:15;9.10;;;5.07;;
54145;SDS011;65909;49.422;7.738;2023-02-28T05:38:40;7.63;;;4.95;;
54145;SDS011;65909;49.422;7.738;2023-02-28T05:41:09;6.57;;;5.22;;
54145;SDS011;65909;49.422;7.738;2023-02-28T05:43:36;13.20;;;6.53;;
54145;SDS011;65909;49.422;7.738;2023-02-28T05:46:03;8.02;;;5.18;;
54145;SDS011;65909;49.422;7.738;2023-02-28T05:48:32;10.98;;;5.85;;
54145;SDS011;65909;49.422;7.738;2023-02-28T05:50:58;6.53;;;4.68;;
54145;SDS011;65909;49.422;7.738;2023-02-28T05:53:24;8.75;;;5.10;;
54145;SDS011;65909;49.422;7.738;2023-02-28T05:55:49;10.75;;;5.93;;
54145;SDS011;65909;49.422;7.738;2023-02-28T05:58:15;7.00;;;4.32;;
54145;SDS011;65909;49.422;7.738;2023-02-28T06:00:40;10.02;;;6.55;;
54145;SDS011;65909;49.422;7.738;2023-02-28T06:03:05;11.73;;;6.22;;
54145;SDS011;65909;49.422;7.738;2023-02-28T06:05:31;8.70;;;5.30;;
54145;SDS011;65909;49.422;7.738;2023-02-28T06:07:56;8.93;;;5.35;;
54145;SDS011;65909;49.422;7.738;2023-02-28T06:10:21;8.68;;;5.57;;
54145;SDS011;65909;49.422;7.738;2023-02-28T06:12:47;9.32;;;5.68;;
54145;SDS011;65909;49.422;7.738;2023-02-28T06:15:13;6.38;;;5.28;;
54145;SDS011;65909;49.422;7.738;2023-02-28T06:17:43;6.95;;;5.25;;
54145;SDS011;65909;49.422;7.738;2023-02-28T06:20:09;17.67;;;5.90;;
54145;SDS011;65909;49.422;7.738;2023-02-28T06:22:37;8.00;;;5.57;;
54145;SDS011;65909;49.422;7.738;2023-02-28T06:25:03;7.05;;;4.60;;
54145;SDS011;65909;49.422;7.738;2023-02-28T06:27:30;6.38;;;5.30;;
54145;SDS011;65909;49.422;7.738;2023-02-28T06:29:57;7.55;;;4.78;;
54145;SDS011;65909;49.422;7.738;2023-02-28T06:32:22;7.55;;;4.18;;
54145;SDS011;65909;49.422;7.738;2023-02-28T06:34:47;5.43;;;4.40;;
54145;SDS011;65909;49.422;7.738;2023-02-28T06:37:13;9.35;;;3.83;;
54145;SDS011;65909;49.422;7.738;2023-02-28T06:39:39;5.70;;;3.67;;
54145;SDS011;65909;49.422;7.738;2023-02-28T06:42:04;5.57;;;4.82;;
54145;SDS011;65909;49.422;7.738;2023-02-28T06:44:30;8.77;;;4.63;;
54145;SDS011;65909;49.422;7.738;2023-02-28T06:47:00;7.57;;;5.13;;
54145;SDS011;65909;49.422;7.738;2023-02-28T06:49:28;7.60;;;4.72;;
54145;SDS011;65909;49.422;7.738;2023-02-28T06:51:54;5.63;;;4.03;;
54145;SDS011;65909;49.422;7.738;2023-02-28T06:54:19;5.88;;;3.92;;
54145;SDS011;65909;49.422;7.738;2023-02-28T06:56:45;7.43;;;4.10;;
54145;SDS011;65909;49.422;7.738;2023-02-28T06:59:10;6.30;;;3.72;;
54145;SDS011;65909;49.422;7.738;2023-02-28T07:01:35;7.18;;;4.38;;
54145;SDS011;65909;49.422;7.738;2023-02-28T07:04:01;6.68;;;4.05;;
54145;SDS011;65909;49.422;7.738;2023-02-28T07:06:27;8.52;;;4.50;;
54145;SDS011;65909;49.422;7.738;2023-02-28T07:08:52;5.70;;;4.03;;
54145;SDS011;65909;49.422;7.738;2023-02-28T07:11:19;5.18;;;4.68;;
54145;SDS011;65909;49.422;7.738;2023-02-28T07:13:47;6.68;;;4.50;;
54145;SDS011;65909;49.422;7.738;2023-02-28T07:16:13;7.05;;;4.50;;
54145;SDS011;65909;49.422;7.738;2023-02-28T07:18:39;4.75;;;3.55;;
54145;SDS011;65909;49.422;7.738;2023-02-28T07:21:05;5.97;;;4.60;;
54145;SDS011;65909;49.422;7.738;2023-02-28T07:23:32;6.38;;;3.63;;
54145;SDS011;65909;49.422;7.738;2023-02-28T07:25:57;5.43;;;3.70;;
54145;SDS011;65909;49.422;7.738;2023-02-28T07:28:23;5.50;;;3.65;;
54145;SDS011;65909;49.422;7.738;2023-02-28T07:30:48;9.32;;;4.18;;
54145;SDS011;65909;49.422;7.738;2023-02-28T07:33:14;5.47;;;3.72;;
54145;SDS011;65909;49.422;7.738;2023-02-28T07:35:40;6.20;;;3.90;;
54145;SDS011;65909;49.422;7.738;2023-02-28T07:38:06;4.95;;;3.85;;
54145;SDS011;65909;49.422;7.738;2023-02-28T07:40:32;7.32;;;3.97;;
54145;SDS011;65909;49.422;7.738;2023-02-28T07:42:59;4.93;;;3.30;;
54145;SDS011;65909;49.422;7.738;2023-02-28T07:45:26;5.10;;;3.95;;
54145;SDS011;65909;49.422;7.738;2023-02-28T07:47:53;5.57;;;3.75;;
54145;SDS011;65909;49.422;7.738;2023-02-28T07:50:19;5.72;;;3.90;;
54145;SDS011;65909;49.422;7.738;2023-02-28T07:52:44;5.45;;;4.00;;
54145;SDS011;65909;49.422;7.738;2023-02-28T07:55:10;5.53;;;4.38;;
54145;SDS011;65909;49.422;7.738;2023-02-28T07:57:35;4.85;;;3.33;;
54145;SDS011;65909;49.422;7.738;2023-02-28T08:00:03;6.22;;;4.15;;
54145;SDS011;65909;49.422;7.738;2023-02-28T08:02:30;6.63;;;4.20;;
54145;SDS011;65909;49.422;7.738;2023-02-28T08:04:55;9.40;;;4.93;;
54145;SDS011;65909;49.422;7.738;2023-02-28T08:07:21;6.57;;;4.70;;
54145;SDS011;65909;49.422;7.738;2023-02-28T08:09:46;4.85;;;3.75;;
54145;SDS011;65909;49.422;7.738;2023-02-28T08:12:12;4.43;;;3.10;;
54145;SDS011;65909;49.422;7.738;2023-02-28T08:14:37;3.97;;;3.55;;
54145;SDS011;65909;49.422;7.738;2023-02-28T08:17:04;5.18;;;3.30;;
54145;SDS011;65909;49.422;7.738;2023-02-28T08:19:30;3.42;;;2.97;;
54145;SDS011;65909;49.422;7.738;2023-02-28T08:21:55;3.17;;;2.83;;
54145;SDS011;65909;49.422;7.738;2023-02-28T08:24:21;3.97;;;2.80;;
54145;SDS011;65909;49.422;7.738;2023-02-28T08:26:47;4.32;;;3.38;;
54145;SDS011;65909;49.422;7.738;2023-02-28T08:29:13;4.40;;;3.30;;
54145;SDS011;65909;49.422;7.738;2023-02-28T08:31:38;3.55;;;2.80;;
54145;SDS011;65909;49.422;7.738;2023-02-28T08:34:07;4.53;;;3.00;;
54145;SDS011;65909;49.422;7.738;2023-02-28T08:36:33;3.72;;;2.65;;
54145;SDS011;65909;49.422;7.738;2023-02-28T08:38:59;3.28;;;2.95;;
54145;SDS011;65909;49.422;7.738;2023-02-28T08:41:24;4.38;;;2.83;;
54145;SDS011;65909;49.422;7.738;2023-02-28T08:43:50;4.10;;;2.97;;
54145;SDS011;65909;49.422;7.738;2023-02-28T08:46:16;3.55;;;3.10;;
54145;SDS011;65909;49.422;7.738;2023-02-28T08:48:42;3.35;;;3.05;;
54145;SDS011;65909;49.422;7.738;2023-02-28T08:51:10;3.92;;;2.38;;
54145;SDS011;65909;49.422;7.738;2023-02-28T08:53:41;5.05;;;3.30;;
54145;SDS011;65909;49.422;7.738;2023-02-28T08:56:07;4.57;;;3.63;;
54145;SDS011;65909;49.422;7.738;2023-02-28T08:58:34;5.40;;;3.75;;
54145;SDS011;65909;49.422;7.738;2023-02-28T09:01:00;4.00;;;2.80;;
54145;SDS011;65909;49.422;7.738;2023-02-28T09:03:26;4.88;;;3.45;;
54145;SDS011;65909;49.422;7.738;2023-02-28T09:05:55;3.00;;;2.40;;
54145;SDS011;65909;49.422;7.738;2023-02-28T09:08:23;3.03;;;2.65;;
54145;SDS011;65909;49.422;7.738;2023-02-28T09:10:49;4.35;;;2.90;;
54145;SDS011;65909;49.422;7.738;2023-02-28T09:13:15;3.13;;;2.83;;
54145;SDS011;65909;49.422;7.738;2023-02-28T09:15:41;3.28;;;2.97;;
54145;SDS011;65909;49.422;7.738;2023-02-28T09:18:06;3.30;;;3.00;;
54145;SDS011;65909;49.422;7.738;2023-02-28T09:20:31;5.47;;;3.42;;
54145;SDS011;65909;49.422;7.738;2023-02-28T09:22:57;4.57;;;3.20;;
54145;SDS011;65909;49.422;7.738;2023-02-28T09:25:22;3.47;;;3.05;;
54145;SDS011;65909;49.422;7.738;2023-02-28T09:27:48;4.47;;;3.08;;
54145;SDS011;65909;49.422;7.738;2023-02-28T09:30:14;4.97;;;3.10;;
54145;SDS011;65909;49.422;7.738;2023-02-28T09:32:39;4.28;;;3.70;;
54145;SDS011;65909;49.422;7.738;2023-02-28T09:35:05;4.47;;;3.00;;
54145;SDS011;65909;49.422;7.738;2023-02-28T09:37:31;4.25;;;3.13;;
54145;SDS011;65909;49.422;7.738;2023-02-28T09:39:56;3.60;;;3.08;;
54145;SDS011;65909;49.422;7.738;2023-02-28T09:42:24;5.03;;;4.15;;
54145;SDS011;65909;49.422;7.738;2023-02-28T09:44:55;5.20;;;3.60;;
54145;SDS011;65909;49.422;7.738;2023-02-28T09:47:33;4.57;;;3.40;;
54145;SDS011;65909;49.422;7.738;2023-02-28T09:50:08;4.00;;;3.60;;
54145;SDS011;65909;49.422;7.738;2023-02-28T09:52:43;5.40;;;3.13;;
54145;SDS011;65909;49.422;7.738;2023-02-28T09:55:33;5.25;;;3.17;;
54145;SDS011;65909;49.422;7.738;2023-02-28T09:58:10;4.68;;;3.25;;
54145;SDS011;65909;49.422;7.738;2023-02-28T10:00:55;4.55;;;2.92;;
54145;SDS011;65909;49.422;7.738;2023-02-28T10:03:30;5.20;;;3.83;;
54145;SDS011;65909;49.422;7.738;2023-02-28T10:08:48;5.80;;;3.53;;
54145;SDS011;65909;49.422;7.738;2023-02-28T10:11:20;3.92;;;3.40;;
54145;SDS011;65909;49.422;7.738;2023-02-28T10:13:59;5.88;;;4.05;;
54145;SDS011;65909;49.422;7.738;2023-02-28T10:16:39;3.92;;;3.40;;
54145;SDS011;65909;49.422;7.738;2023-02-28T10:22:24;6.20;;;3.67;;
54145;SDS011;65909;49.422;7.738;2023-02-28T10:24:51;5.13;;;3.47;;
54145;SDS011;65909;49.422;7.738;2023-02-28T10:27:19;4.88;;;3.63;;
54145;SDS011;65909;49.422;7.738;2023-02-28T10:29:49;5.30;;;3.72;;
54145;SDS011;65909;49.422;7.738;2023-02-28T10:32:20;4.93;;;3.78;;
54145;SDS011;65909;49.422;7.738;2023-02-28T10:35:31;6.28;;;3.67;;
54145;SDS011;65909;49.422;7.738;2023-02-28T10:37:43;4.53;;;3.78;;
54145;SDS011;65909;49.422;7.738;2023-02-28T10:40:25;4.63;;;3.35;;
54145;SDS011;65909;49.422;7.738;2023-02-28T10:45:24;5.15;;;4.38;;
54145;SDS011;65909;49.422;7.738;2023-02-28T10:48:34;4.72;;;3.42;;
54145;SDS011;65909;49.422;7.738;2023-02-28T10:50:43;4.10;;;3.25;;
54145;SDS011;65909;49.422;7.738;2023-02-28T10:56:05;4.78;;;3.70;;
54145;SDS011;65909;49.422;7.738;2023-02-28T11:03:41;4.60;;;3.88;;
54145;SDS011;65909;49.422;7.738;2023-02-28T11:06:08;4.55;;;3.42;;
54145;SDS011;65909;49.422;7.738;2023-02-28T11:08:43;5.00;;;3.75;;
54145;SDS011;65909;49.422;7.738;2023-02-28T11:11:10;4.78;;;3.92;;
54145;SDS011;65909;49.422;7.738;2023-02-28T11:13:36;6.03;;;3.90;;
54145;SDS011;65909;49.422;7.738;2023-02-28T11:16:09;10.02;;;5.55;;
54145;SDS011;65909;49.422;7.738;2023-02-28T11:21:06;5.75;;;3.35;;
54145;SDS011;65909;49.422;7.738;2023-02-28T11:23:34;4.88;;;3.90;;
54145;SDS011;65909;49.422;7.738;2023-02-28T11:26:05;6.30;;;4.10;;
54145;SDS011;65909;49.422;7.738;2023-02-28T11:28:35;5.70;;;4.13;;
54145;SDS011;65909;49.422;7.738;2023-02-28T11:33:42;5.43;;;4.30;;
54145;SDS011;65909;49.422;7.738;2023-02-28T11:36:14;6.78;;;4.10;;
54145;SDS011;65909;49.422;7.738;2023-02-28T11:38:52;5.25;;;3.80;;
54145;SDS011;65909;49.422;7.738;2023-02-28T11:44:09;6.47;;;4.47;;
54145;SDS011;65909;49.422;7.738;2023-02-28T11:46:58;5.60;;;3.97;;
54145;SDS011;65909;49.422;7.738;2023-02-28T11:49:43;5.45;;;3.33;;
54145;SDS011;65909;49.422;7.738;2023-02-28T11:52:33;7.85;;;4.32;;
54145;SDS011;65909;49.422;7.738;2023-02-28T11:58:12;8.63;;;4.15;;
54145;SDS011;65909;49.422;7.738;2023-02-28T12:01:07;5.72;;;4.20;;
54145;SDS011;65909;49.422;7.738;2023-02-28T12:06:40;10.40;;;4.30;;
54145;SDS011;65909;49.422;7.738;2023-02-28T12:12:22;5.43;;;4.63;;
54145;SDS011;65909;49.422;7.738;2023-02-28T12:18:04;5.28;;;3.90;;
54145;SDS011;65909;49.422;7.738;2023-02-28T12:29:28;6.90;;;4.40;;
54145;SDS011;65909;49.422;7.738;2023-02-28T12:31:58;7.18;;;4.57;;
54145;SDS011;65909;49.422;7.738;2023-02-28T12:34:37;6.60;;;4.25;;
54145;SDS011;65909;49.422;7.738;2023-02-28T12:37:06;4.68;;;4.15;;
54145;SDS011;65909;49.422;7.738;2023-02-28T12:39:40;5.67;;;3.97;;
54145;SDS011;65909;49.422;7.738;2023-02-28T12:42:17;4.85;;;3.92;;
54145;SDS011;65909;49.422;7.738;2023-02-28T12:45:37;5.68;;;3.97;;
54145;SDS011;65909;49.422;7.738;2023-02-28T12:47:58;6.75;;;4.22;;
54145;SDS011;65909;49.422;7.738;2023-02-28T12:50:26;5.78;;;4.38;;
54145;SDS011;65909;49.422;7.738;2023-02-28T12:52:56;6.32;;;4.38;;
54145;SDS011;65909;49.422;7.738;2023-02-28T13:01:10;7.03;;;4.28;;
54145;SDS011;65909;49.422;7.738;2023-02-28T13:09:57;6.82;;;4.30;;
54145;SDS011;65909;49.422;7.738;2023-02-28T13:12:25;5.60;;;4.32;;
54145;SDS011;65909;49.422;7.738;2023-02-28T13:14:51;8.70;;;4.55;;
54145;SDS011;65909;49.422;7.738;2023-02-28T13:17:49;6.03;;;4.22;;
54145;SDS011;65909;49.422;7.738;2023-02-28T13:20:35;5.53;;;3.78;;
54145;SDS011;65909;49.422;7.738;2023-02-28T13:23:02;6.50;;;4.53;;
54145;SDS011;65909;49.422;7.738;2023-02-28T13:27:58;6.88;;;4.38;;
54145;SDS011;65909;49.422;7.738;2023-02-28T13:38:44;6.53;;;4.60;;
54145;SDS011;65909;49.422;7.738;2023-02-28T13:43:59;6.20;;;4.47;;
54145;SDS011;65909;49.422;7.738;2023-02-28T13:46:34;7.07;;;4.30;;
54145;SDS011;65909;49.422;7.738;2023-02-28T13:59:33;6.90;;;4.82;;
54145;SDS011;65909;49.422;7.738;2023-02-28T14:02:03;8.32;;;4.97;;
54145;SDS011;65909;49.422;7.738;2023-02-28T14:07:22;4.93;;;3.88;;
54145;SDS011;65909;49.422;7.738;2023-02-28T14:09:55;7.22;;;5.13;;
54145;SDS011;65909;49.422;7.738;2023-02-28T14:15:39;6.93;;;4.72;;
54145;SDS011;65909;49.422;7.738;2023-02-28T14:18:18;6.50;;;4.55;;
54145;SDS011;65909;49.422;7.738;2023-02-28T14:20:47;7.97;;;4.53;;
54145;SDS011;65909;49.422;7.738;2023-02-28T14:26:07;8.10;;;5.22;;
54145;SDS011;65909;49.422;7.738;2023-02-28T14:31:17;7.75;;;5.18;;
54145;SDS011;65909;49.422;7.738;2023-02-28T14:36:36;6.95;;;4.78;;
54145;SDS011;65909;49.422;7.738;2023-02-28T14:39:06;6.20;;;4.13;;
54145;SDS011;65909;49.422;7.738;2023-02-28T14:41:34;8.93;;;4.63;;
54145;SDS011;65909;49.422;7.738;2023-02-28T14:46:44;6.05;;;4.40;;
54145;SDS011;65909;49.422;7.738;2023-02-28T14:49:13;5.88;;;4.53;;
54145;SDS011;65909;49.422;7.738;2023-02-28T14:51:43;5.93;;;4.22;;
54145;SDS011;65909;49.422;7.738;2023-02-28T14:54:12;7.60;;;5.00;;
54145;SDS011;65909;49.422;7.738;2023-02-28T14:56:43;5.50;;;4.18;;
54145;SDS011;65909;49.422;7.738;2023-02-28T15:02:14;6.57;;;4.18;;
54145;SDS011;65909;49.422;7.738;2023-02-28T15:04:41;7.95;;;4.47;;
54145;SDS011;65909;49.422;7.738;2023-02-28T15:07:08;7.22;;;4.38;;
54145;SDS011;65909;49.422;7.738;2023-02-28T15:09:38;7.03;;;4.32;;
54145;SDS011;65909;49.422;7.738;2023-02-28T15:12:04;6.80;;;4.40;;
54145;SDS011;65909;49.422;7.738;2023-02-28T15:14:30;6.35;;;4.75;;
54145;SDS011;65909;49.422;7.738;2023-02-28T15:16:57;7.20;;;4.82;;
54145;SDS011;65909;49.422;7.738;2023-02-28T15:19:30;10.23;;;4.38;;
54145;SDS011;65909;49.422;7.738;2023-02-28T15:22:00;8.75;;;5.25;;
54145;SDS011;65909;49.422;7.738;2023-02-28T15:24:31;6.30;;;4.43;;
54145;SDS011;65909;49.422;7.738;2023-02-28T15:27:03;7.70;;;4.43;;
54145;SDS011;65909;49.422;7.738;2023-02-28T15:29:34;6.45;;;4.43;;
54145;SDS011;65909;49.422;7.738;2023-02-28T15:32:27;8.75;;;5.22;;
54145;SDS011;65909;49.422;7.738;2023-02-28T15:38:02;10.75;;;5.00;;
54145;SDS011;65909;49.422;7.738;2023-02-28T15:40:44;7.43;;;4.75;;
54145;SDS011;65909;49.422;7.738;2023-02-28T15:43:23;6.70;;;5.00;;
54145;SDS011;65909;49.422;7.738;2023-02-28T15:48:53;7.93;;;4.90;;
54145;SDS011;65909;49.422;7.738;2023-02-28T15:51:22;7.97;;;4.43;;
54145;SDS011;65909;49.422;7.738;2023-02-28T15:53:56;7.47;;;5.32;;
54145;SDS011;65909;49.422;7.738;2023-02-28T15:56:28;6.95;;;4.78;;
54145;SDS011;65909;49.422;7.738;2023-02-28T15:58:57;7.13;;;4.70;;
54145;SDS011;65909;49.422;7.738;2023-02-28T16:01:26;11.77;;;5.40;;
54145;SDS011;65909;49.422;7.738;2023-02-28T16:04:11;7.13;;;5.00;;
54145;SDS011;65909;49.422;7.738;2023-02-28T16:09:24;6.05;;;4.47;;
54145;SDS011;65909;49.422;7.738;2023-02-28T16:11:52;6.88;;;4.80;;
54145;SDS011;65909;49.422;7.738;2023-02-28T16:14:24;8.48;;;4.90;;
54145;SDS011;65909;49.422;7.738;2023-02-28T16:16:53;8.52;;;4.82;;
54145;SDS011;65909;49.422;7.738;2023-02-28T16:19:20;6.00;;;5.20;;
54145;SDS011;65909;49.422;7.738;2023-02-28T16:21:46;9.40;;;5.22;;
54145;SDS011;65909;49.422;7.738;2023-02-28T16:24:11;6.47;;;5.10;;
54145;SDS011;65909;49.422;7.738;2023-02-28T16:26:38;6.28;;;4.80;;
54145;SDS011;65909;49.422;7.738;2023-02-28T16:29:06;7.72;;;5.18;;
54145;SDS011;65909;49.422;7.738;2023-02-28T16:31:33;5.75;;;4.53;;
54145;SDS011;65909;49.422;7.738;2023-02-28T16:34:01;7.75;;;4.82;;
54145;SDS011;65909;49.422;7.738;2023-02-28T16:36:26;7.78;;;4.57;;
54145;SDS011;65909;49.422;7.738;2023-02-28T16:38:53;7.35;;;4.47;;
54145;SDS011;65909;49.422;7.738;2023-02-28T16:41:20;6.90;;;4.63;;
54145;SDS011;65909;49.422;7.738;2023-02-28T16:43:47;8.50;;;4.38;;
54145;SDS011;65909;49.422;7.738;2023-02-28T16:46:15;7.78;;;5.18;;
54145;SDS011;65909;49.422;7.738;2023-02-28T16:48:41;8.40;;;5.10;;
54145;SDS011;65909;49.422;7.738;2023-02-28T16:51:11;7.82;;;4.80;;
54145;SDS011;65909;49.422;7.738;2023-02-28T16:53:38;6.63;;;5.03;;
54145;SDS011;65909;49.422;7.738;2023-02-28T16:56:03;11.25;;;4.63;;
54145;SDS011;65909;49.422;7.738;2023-02-28T16:58:31;8.35;;;4.72;;
54145;SDS011;65909;49.422;7.738;2023-02-28T17:01:00;8.57;;;5.10;;
54145;SDS011;65909;49.422;7.738;2023-02-28T17:03:27;8.02;;;5.22;;
54145;SDS011;65909;49.422;7.738;2023-02-28T17:05:53;10.73;;;5.07;;
54145;SDS011;65909;49.422;7.738;2023-02-28T17:08:19;9.63;;;5.75;;
54145;SDS011;65909;49.422;7.738;2023-02-28T17:10:44;9.50;;;5.80;;
54145;SDS011;65909;49.422;7.738;2023-02-28T17:13:10;8.98;;;5.22;;